VVDN/DAD METAR and TAF weather

Enter ICAO airport designator
Station Type Date Time Source
VVDN METAR 2021/09/25 12:00 UTC NOAA

VVDN 251200Z 13005KT 9999 FEW013 FEW017CB 28/25 Q1009 NOSIG


Station Type Date Time Source
VVDN Decoded METAR 2021/09/25 12:00 UTC NOAA

Da Nang, Vietnam (VVDN) 16-02N 108-11E 7M
Sep 25, 2021 - 08:00 AM EDT / 2021.09.25 1200 UTC
Wind: from the SE (130 degrees) at 6 MPH (5 KT):0
Visibility: greater than 7 mile(s):0
Sky conditions: mostly clear
Weather: Cumulonimbus clouds observed
Temperature: 82 F (28 C)
Dew Point: 77 F (25 C)
Relative Humidity: 83%
Pressure (altimeter): 29.80 in. Hg (1009 hPa)
ob: VVDN 251200Z 13005KT 9999 FEW013 FEW017CB 28/25 Q1009 NOSIG
cycle: 12

Station Type Date Time Source
VVDN TAF 2021/09/25 12:36 UTC NOAA

TAF VVDN 251100Z 2512/2612 22005KT 9999 FEW015 SCT060
BECMG 2603/2604 12010KT
TEMPO 2608/2612 TS SCT013 FEW015CB SCT060

Example: see airport list